Terminal Aerodrome Forecast
Issued by NWS

Home | Current Version | Previous Version | Graphics & Text | Print | Product List | Glossary On
Versions: 1 2 3 4 5 6 7 8 9 10 11 12 13 14 15 16 17
689
FTUS43 KGRB 240520
TAFMTW
TAF
KMTW 240520Z 2406/2506 18009KT P6SM BKN035 OVC150
      TEMPO 2408/2411 5SM -TSRA BR BKN015 OVC035CB
     FM241100 19008KT 2SM TSRA BR BKN006 OVC015CB
     FM241500 19012G19KT 5SM -SHRA BR BKN008 OVC015
     FM241900 20013G20KT 6SM HZ SCT015 BKN035
      TEMPO 2419/2421 BKN015
     FM250200 22007KT 5SM BR BKN015 BKN035=

USA.gov is the U.S. government's official web portal to all federal, state and local government web resources and services.